Country
Station

 

Weather  for  Agadir  -  Morocco    Morocco

  
7 °C (45 °F)
    
 
 

Current METAR for Agadir is :

GMAA 090705Z 10004KT 0500 FG OVC003 07/07 Q1022 NOSIG M2+3

 

This is a report for Agadir - Morocco.
 
The report was made 247 hours and 6 minutes ago, at 07:05 UTC .
The wind was blowing at a speed of 2.1 meters per second (4.6 miles per hour) from east (100°).
 
The temperature was 7 °C (45 °F), with a dew-point at 7 °C (45 °F).
The atmospheric pressure was 1022 hPa (30.18 inHg).
The relative humidity was 100.0%.
 
The sky was overcast from a height of 91 meter (300 feet)
 
The overall visibility was 500 meter (1640 feet).
 
Currently fog.

 
 
 
 

Country :   A   B   C   D   E   F   G   H   I   J   K   L   M   N   O   P   Q   R   S   T   U   V   W   Y   Z

 

Site Info  |  Disclaimer  |  Credits  |  Privacy
Contact us  |  Add to favorites
© 2013-2019 METARs - All rights reserved